Dam Neck, VA (23461)

12:30 AM EDT on May 27, 2015 (GMT -0400)
KVAVIRGI82 | | Change Station
CLOSE
Current Station
Personal Weather Station
Location: Virginia Beach, VA
Elevation: 13 ft
Nearby Weather Stations

Elev 13 ft 36.79 °N, 75.96 °W | Updated 8 minutes ago

Partly Cloudy
Partly Cloudy
72.0 °F
Feels Like 74 °F
N
6.8
Wind Variable Wind from SSW

Today
High -- | Low -- °F
--% Chance of Precip.
Yesterday
High -- | Low -- °F
Precip. -- in
5:48 AM 8:13 PM
Waxing Gibbous, 64% visible
Pressure 30.25 in
Visibility 10.0 miles
Clouds Scattered Clouds 28000 ft
Heat Index 74 °F
Dew Point 63 °F
Humidity 74%
Rainfall 0.00 in
Snow Depth Not available.
UV 0 out of 12
Pollen 7.00 out of 12
Air Quality Not available.
Flu Activity No Activity
METAR KNTU 270356Z 18009G16KT 10SM SCT280 23/18 A3024 RMK AO2 SLP242 T02330183

More Conditions Fewer Conditions

Pressure 30.25 in
Visibility 10.0 miles
Clouds Scattered Clouds 28000 ft
Heat Index 74 °F
Dew Point 63 °F
Humidity 74%
Rainfall 0.00 in
Snow Depth Not available.
UV 0 out of 12
Pollen 7.00 out of 12
Air Quality Not available.
Flu Activity No Activity
METAR KNTU 270356Z 18009G16KT 10SM SCT280 23/18 A3024 RMK AO2 SLP242 T02330183

More Conditions Fewer Conditions

10-Day Weather Forecast

Almanac

Astronomy

May. 27, 2015 Rise Set
Actual Time
Civil Twilight
Nautical Twilight
Astronomical Twilight
Moon
Length of Visible Light
Length of Day
Tomorrow will be .
, % of the Moon is Illuminated

Today's Extremes

State Highs State Lows

Community

WunderPhotos

Upload Photos

1,824,615 photos uploaded!

WunderBlogs® & News

Nearby

Air Quality

  Air Quality AQ Index Pollutant
Not available.

Snow Depth

Station Depth Elevation

Earthquake Activity

City Distance Mag. Time & Date
Minimum magnitude displayed is 2.5.

Coastal Water Temperatures

Place Temperature

Stations

Nearby Weather Stations

Station Location Temp. Windchill Dew Point Humidity Wind Precip. Elev Updated Type